sensor_id;sensor_type;location;lat;lon;timestamp;pressure;altitude;pressure_sealevel;temperature
40045;BMP280;25735;48.122;11.422;2023-01-09T00:01:19;93663.19;;;5.26
40045;BMP280;25735;48.122;11.422;2023-01-09T00:03:45;93679.16;;;5.29
40045;BMP280;25735;48.122;11.422;2023-01-09T00:06:11;93668.63;;;5.31
40045;BMP280;25735;48.122;11.422;2023-01-09T00:08:36;93680.94;;;5.37
40045;BMP280;25735;48.122;11.422;2023-01-09T00:11:02;93684.84;;;5.36
40045;BMP280;25735;48.122;11.422;2023-01-09T00:13:27;93689.84;;;5.24
40045;BMP280;25735;48.122;11.422;2023-01-09T00:15:52;93691.16;;;5.33
40045;BMP280;25735;48.122;11.422;2023-01-09T00:18:17;93684.69;;;5.20
40045;BMP280;25735;48.122;11.422;2023-01-09T00:20:43;93680.97;;;5.18
40045;BMP280;25735;48.122;11.422;2023-01-09T00:23:08;93692.34;;;5.27
40045;BMP280;25735;48.122;11.422;2023-01-09T00:25:33;93677.44;;;5.32
40045;BMP280;25735;48.122;11.422;2023-01-09T00:27:58;93679.03;;;5.43
40045;BMP280;25735;48.122;11.422;2023-01-09T00:30:24;93677.22;;;5.35
40045;BMP280;25735;48.122;11.422;2023-01-09T00:32:49;93676.59;;;5.45
40045;BMP280;25735;48.122;11.422;2023-01-09T00:35:16;93661.94;;;5.52
40045;BMP280;25735;48.122;11.422;2023-01-09T00:37:42;93665.41;;;5.52
40045;BMP280;25735;48.122;11.422;2023-01-09T00:40:08;93657.25;;;5.72
40045;BMP280;25735;48.122;11.422;2023-01-09T00:42:34;93674.09;;;5.67
40045;BMP280;25735;48.122;11.422;2023-01-09T00:45:03;93678.69;;;5.61
40045;BMP280;25735;48.122;11.422;2023-01-09T00:47:35;93665.88;;;5.51
40045;BMP280;25735;48.122;11.422;2023-01-09T00:50:06;93663.06;;;5.65
40045;BMP280;25735;48.122;11.422;2023-01-09T00:52:34;93658.09;;;5.58
40045;BMP280;25735;48.122;11.422;2023-01-09T00:55:02;93664.00;;;5.62
40045;BMP280;25735;48.122;11.422;2023-01-09T00:57:28;93668.34;;;5.54
40045;BMP280;25735;48.122;11.422;2023-01-09T00:59:54;93672.09;;;5.62
40045;BMP280;25735;48.122;11.422;2023-01-09T01:02:19;93657.41;;;5.63
40045;BMP280;25735;48.122;11.422;2023-01-09T01:04:44;93644.72;;;5.69
40045;BMP280;25735;48.122;11.422;2023-01-09T01:07:28;93653.97;;;5.62
40045;BMP280;25735;48.122;11.422;2023-01-09T01:10:09;93643.53;;;5.70
40045;BMP280;25735;48.122;11.422;2023-01-09T01:12:35;93645.84;;;5.57
40045;BMP280;25735;48.122;11.422;2023-01-09T01:15:01;93653.69;;;5.55
40045;BMP280;25735;48.122;11.422;2023-01-09T01:17:28;93655.78;;;5.46
40045;BMP280;25735;48.122;11.422;2023-01-09T01:19:53;93656.53;;;5.46
40045;BMP280;25735;48.122;11.422;2023-01-09T01:22:18;93649.03;;;5.56
40045;BMP280;25735;48.122;11.422;2023-01-09T01:24:43;93622.66;;;5.65
40045;BMP280;25735;48.122;11.422;2023-01-09T01:27:09;93646.06;;;5.54
40045;BMP280;25735;48.122;11.422;2023-01-09T01:29:34;93642.13;;;5.49
40045;BMP280;25735;48.122;11.422;2023-01-09T01:31:59;93643.41;;;5.59
40045;BMP280;25735;48.122;11.422;2023-01-09T01:34:24;93645.41;;;5.64
40045;BMP280;25735;48.122;11.422;2023-01-09T01:36:50;93646.13;;;5.64
40045;BMP280;25735;48.122;11.422;2023-01-09T01:39:15;93643.09;;;5.77
40045;BMP280;25735;48.122;11.422;2023-01-09T01:41:41;93655.13;;;5.81
40045;BMP280;25735;48.122;11.422;2023-01-09T01:47:09;93640.66;;;5.79
40045;BMP280;25735;48.122;11.422;2023-01-09T01:49:35;93645.09;;;5.82
40045;BMP280;25735;48.122;11.422;2023-01-09T01:52:01;93648.00;;;5.78
40045;BMP280;25735;48.122;11.422;2023-01-09T01:54:28;93642.13;;;5.80
40045;BMP280;25735;48.122;11.422;2023-01-09T01:56:56;93632.66;;;5.64
40045;BMP280;25735;48.122;11.422;2023-01-09T01:59:25;93626.41;;;5.73
40045;BMP280;25735;48.122;11.422;2023-01-09T02:01:53;93628.41;;;5.78
40045;BMP280;25735;48.122;11.422;2023-01-09T02:04:20;93634.63;;;5.64
40045;BMP280;25735;48.122;11.422;2023-01-09T02:06:47;93661.41;;;5.42
40045;BMP280;25735;48.122;11.422;2023-01-09T02:09:14;93658.72;;;5.42
40045;BMP280;25735;48.122;11.422;2023-01-09T02:11:46;93645.31;;;5.53
40045;BMP280;25735;48.122;11.422;2023-01-09T02:14:12;93639.28;;;5.63
40045;BMP280;25735;48.122;11.422;2023-01-09T02:19:35;93652.28;;;5.65
40045;BMP280;25735;48.122;11.422;2023-01-09T02:30:41;93649.19;;;5.77
40045;BMP280;25735;48.122;11.422;2023-01-09T02:33:19;93649.59;;;5.65
40045;BMP280;25735;48.122;11.422;2023-01-09T02:36:04;93649.09;;;5.66
40045;BMP280;25735;48.122;11.422;2023-01-09T02:41:03;93642.28;;;5.71
40045;BMP280;25735;48.122;11.422;2023-01-09T02:43:30;93624.66;;;5.70
40045;BMP280;25735;48.122;11.422;2023-01-09T02:45:56;93614.16;;;5.72
40045;BMP280;25735;48.122;11.422;2023-01-09T02:48:21;93624.56;;;5.59
40045;BMP280;25735;48.122;11.422;2023-01-09T02:50:58;93615.09;;;5.69
40045;BMP280;25735;48.122;11.422;2023-01-09T02:53:43;93621.97;;;5.70
40045;BMP280;25735;48.122;11.422;2023-01-09T02:56:43;93631.72;;;5.67
40045;BMP280;25735;48.122;11.422;2023-01-09T02:59:19;93615.03;;;5.63
40045;BMP280;25735;48.122;11.422;2023-01-09T03:02:07;93623.97;;;5.75
40045;BMP280;25735;48.122;11.422;2023-01-09T03:10:35;93633.00;;;5.72
40045;BMP280;25735;48.122;11.422;2023-01-09T03:13:01;93628.56;;;5.69
40045;BMP280;25735;48.122;11.422;2023-01-09T03:15:32;93623.25;;;5.80
40045;BMP280;25735;48.122;11.422;2023-01-09T03:17:59;93617.94;;;5.90
40045;BMP280;25735;48.122;11.422;2023-01-09T03:20:25;93623.25;;;5.80
40045;BMP280;25735;48.122;11.422;2023-01-09T03:23:03;93621.97;;;5.70
40045;BMP280;25735;48.122;11.422;2023-01-09T03:25:30;93620.47;;;5.69
40045;BMP280;25735;48.122;11.422;2023-01-09T03:28:02;93627.03;;;5.62
40045;BMP280;25735;48.122;11.422;2023-01-09T03:30:29;93631.78;;;5.73
40045;BMP280;25735;48.122;11.422;2023-01-09T03:32:55;93622.69;;;5.70
40045;BMP280;25735;48.122;11.422;2023-01-09T03:35:21;93622.25;;;5.77
40045;BMP280;25735;48.122;11.422;2023-01-09T03:37:46;93626.91;;;5.71
40045;BMP280;25735;48.122;11.422;2023-01-09T03:40:12;93635.91;;;5.68
40045;BMP280;25735;48.122;11.422;2023-01-09T03:42:37;93638.75;;;5.60
40045;BMP280;25735;48.122;11.422;2023-01-09T03:45:03;93623.06;;;5.58
40045;BMP280;25735;48.122;11.422;2023-01-09T03:47:29;93643.41;;;5.59
40045;BMP280;25735;48.122;11.422;2023-01-09T03:49:54;93632.63;;;5.59
40045;BMP280;25735;48.122;11.422;2023-01-09T03:52:19;93638.28;;;5.61
40045;BMP280;25735;48.122;11.422;2023-01-09T03:54:44;93630.16;;;5.56
40045;BMP280;25735;48.122;11.422;2023-01-09T03:57:09;93638.28;;;5.61
40045;BMP280;25735;48.122;11.422;2023-01-09T03:59:35;93639.78;;;5.67
40045;BMP280;25735;48.122;11.422;2023-01-09T04:02:00;93641.16;;;5.83
40045;BMP280;25735;48.122;11.422;2023-01-09T04:04:25;93638.34;;;6.02
40045;BMP280;25735;48.122;11.422;2023-01-09T04:06:51;93643.13;;;6.18
40045;BMP280;25735;48.122;11.422;2023-01-09T04:09:16;93640.69;;;6.25
40045;BMP280;25735;48.122;11.422;2023-01-09T04:11:41;93642.47;;;6.34
40045;BMP280;25735;48.122;11.422;2023-01-09T04:14:07;93660.13;;;6.35
40045;BMP280;25735;48.122;11.422;2023-01-09T04:16:32;93665.13;;;6.52
40045;BMP280;25735;48.122;11.422;2023-01-09T04:18:57;93649.91;;;6.55
40045;BMP280;25735;48.122;11.422;2023-01-09T04:21:22;93653.41;;;6.66
40045;BMP280;25735;48.122;11.422;2023-01-09T04:23:48;93671.34;;;6.69
40045;BMP280;25735;48.122;11.422;2023-01-09T04:26:13;93664.28;;;6.88
40045;BMP280;25735;48.122;11.422;2023-01-09T04:28:38;93676.09;;;6.96
40045;BMP280;25735;48.122;11.422;2023-01-09T04:31:03;93683.69;;;6.97
40045;BMP280;25735;48.122;11.422;2023-01-09T04:33:29;93683.47;;;7.01
40045;BMP280;25735;48.122;11.422;2023-01-09T04:35:54;93681.75;;;7.03
40045;BMP280;25735;48.122;11.422;2023-01-09T04:38:20;93704.81;;;7.04
40045;BMP280;25735;48.122;11.422;2023-01-09T04:40:46;93703.63;;;7.05
40045;BMP280;25735;48.122;11.422;2023-01-09T04:43:12;93709.50;;;7.03
40045;BMP280;25735;48.122;11.422;2023-01-09T04:45:37;93713.47;;;7.13
40045;BMP280;25735;48.122;11.422;2023-01-09T04:48:03;93727.69;;;7.08
40045;BMP280;25735;48.122;11.422;2023-01-09T04:50:28;93726.19;;;7.07
40045;BMP280;25735;48.122;11.422;2023-01-09T04:52:53;93736.56;;;7.14
40045;BMP280;25735;48.122;11.422;2023-01-09T04:55:19;93736.78;;;7.11
40045;BMP280;25735;48.122;11.422;2023-01-09T04:57:44;93732.88;;;7.23
40045;BMP280;25735;48.122;11.422;2023-01-09T05:00:10;93732.69;;;7.31
40045;BMP280;25735;48.122;11.422;2023-01-09T05:02:36;93750.38;;;7.38
40045;BMP280;25735;48.122;11.422;2023-01-09T05:05:02;93740.81;;;7.42
40045;BMP280;25735;48.122;11.422;2023-01-09T05:07:27;93752.13;;;7.41
40045;BMP280;25735;48.122;11.422;2023-01-09T05:09:52;93754.31;;;7.42
40045;BMP280;25735;48.122;11.422;2023-01-09T05:12:18;93764.34;;;7.36
40045;BMP280;25735;48.122;11.422;2023-01-09T05:14:43;93782.59;;;7.47
40045;BMP280;25735;48.122;11.422;2023-01-09T05:17:08;93783.09;;;7.51
40045;BMP280;25735;48.122;11.422;2023-01-09T05:19:34;93782.41;;;7.66
40045;BMP280;25735;48.122;11.422;2023-01-09T05:21:59;93786.06;;;7.63
40045;BMP280;25735;48.122;11.422;2023-01-09T05:24:24;93804.94;;;7.53
40045;BMP280;25735;48.122;11.422;2023-01-09T05:26:49;93801.06;;;7.64
40045;BMP280;25735;48.122;11.422;2023-01-09T05:29:15;93814.06;;;7.60
40045;BMP280;25735;48.122;11.422;2023-01-09T05:31:40;93820.88;;;7.45
40045;BMP280;25735;48.122;11.422;2023-01-09T05:34:05;93823.56;;;7.40
40045;BMP280;25735;48.122;11.422;2023-01-09T05:36:30;93825.06;;;7.41
40045;BMP280;25735;48.122;11.422;2023-01-09T05:38:56;93832.41;;;7.35
40045;BMP280;25735;48.122;11.422;2023-01-09T05:41:22;93827.97;;;7.32
40045;BMP280;25735;48.122;11.422;2023-01-09T05:43:47;93828.91;;;7.29
40045;BMP280;25735;48.122;11.422;2023-01-09T05:46:13;93848.31;;;7.28
40045;BMP280;25735;48.122;11.422;2023-01-09T05:48:38;93830.16;;;7.33
40045;BMP280;25735;48.122;11.422;2023-01-09T05:51:03;93831.88;;;7.31
40045;BMP280;25735;48.122;11.422;2023-01-09T05:53:28;93841.00;;;7.39
40045;BMP280;25735;48.122;11.422;2023-01-09T05:55:54;93855.97;;;7.34
40045;BMP280;25735;48.122;11.422;2023-01-09T05:58:19;93838.03;;;7.31
40045;BMP280;25735;48.122;11.422;2023-01-09T06:00:44;93846.41;;;7.39
40045;BMP280;25735;48.122;11.422;2023-01-09T06:03:09;93828.69;;;7.27
40045;BMP280;25735;48.122;11.422;2023-01-09T06:05:35;93832.34;;;7.24
40045;BMP280;25735;48.122;11.422;2023-01-09T06:08:00;93852.75;;;7.30
40045;BMP280;25735;48.122;11.422;2023-01-09T06:10:25;93856.63;;;7.19
40045;BMP280;25735;48.122;11.422;2023-01-09T06:12:51;93873.34;;;7.23
40045;BMP280;25735;48.122;11.422;2023-01-09T06:15:18;93888.28;;;7.18
40045;BMP280;25735;48.122;11.422;2023-01-09T06:17:44;93876.25;;;7.19
40045;BMP280;25735;48.122;11.422;2023-01-09T06:20:10;93889.47;;;7.12
40045;BMP280;25735;48.122;11.422;2023-01-09T06:22:36;93884.50;;;7.00
40045;BMP280;25735;48.122;11.422;2023-01-09T06:25:01;93887.63;;;6.93
40045;BMP280;25735;48.122;11.422;2023-01-09T06:27:26;93916.31;;;6.90
40045;BMP280;25735;48.122;11.422;2023-01-09T06:29:52;93923.00;;;6.95
40045;BMP280;25735;48.122;11.422;2023-01-09T06:32:17;93928.06;;;6.87
40045;BMP280;25735;48.122;11.422;2023-01-09T06:34:42;93928.31;;;6.84
40045;BMP280;25735;48.122;11.422;2023-01-09T06:37:08;93928.28;;;6.78
40045;BMP280;25735;48.122;11.422;2023-01-09T06:39:33;93933.91;;;6.80
40045;BMP280;25735;48.122;11.422;2023-01-09T06:41:58;93934.56;;;6.70
40045;BMP280;25735;48.122;11.422;2023-01-09T06:44:24;93940.94;;;6.67
40045;BMP280;25735;48.122;11.422;2023-01-09T06:46:49;93950.97;;;6.67
40045;BMP280;25735;48.122;11.422;2023-01-09T06:49:14;93943.78;;;6.58
40045;BMP280;25735;48.122;11.422;2023-01-09T06:51:42;93958.50;;;6.57
40045;BMP280;25735;48.122;11.422;2023-01-09T06:54:07;93930.78;;;6.57
40045;BMP280;25735;48.122;11.422;2023-01-09T06:56:32;93949.59;;;6.51
40045;BMP280;25735;48.122;11.422;2023-01-09T06:58:57;93952.78;;;6.50
40045;BMP280;25735;48.122;11.422;2023-01-09T07:01:23;93969.94;;;6.47
40045;BMP280;25735;48.122;11.422;2023-01-09T07:03:48;93957.59;;;6.41
40045;BMP280;25735;48.122;11.422;2023-01-09T07:06:13;93966.22;;;6.45
40045;BMP280;25735;48.122;11.422;2023-01-09T07:08:39;93969.72;;;6.50
40045;BMP280;25735;48.122;11.422;2023-01-09T07:11:04;93980.81;;;6.33
40045;BMP280;25735;48.122;11.422;2023-01-09T07:13:29;93995.16;;;6.44
40045;BMP280;25735;48.122;11.422;2023-01-09T07:15:55;93989.28;;;6.45
40045;BMP280;25735;48.122;11.422;2023-01-09T07:18:20;93985.81;;;6.40
40045;BMP280;25735;48.122;11.422;2023-01-09T07:20:45;93989.56;;;6.47
40045;BMP280;25735;48.122;11.422;2023-01-09T07:23:11;94008.44;;;6.47
40045;BMP280;25735;48.122;11.422;2023-01-09T07:25:42;94004.47;;;6.43
40045;BMP280;25735;48.122;11.422;2023-01-09T07:28:07;94024.09;;;6.44
40045;BMP280;25735;48.122;11.422;2023-01-09T07:30:33;94022.41;;;6.46
40045;BMP280;25735;48.122;11.422;2023-01-09T07:32:58;94036.78;;;6.38
40045;BMP280;25735;48.122;11.422;2023-01-09T07:35:23;94043.66;;;6.39
40045;BMP280;25735;48.122;11.422;2023-01-09T07:37:48;94052.97;;;6.38
40045;BMP280;25735;48.122;11.422;2023-01-09T07:40:14;94040.41;;;6.35
40045;BMP280;25735;48.122;11.422;2023-01-09T07:42:39;94051.75;;;6.39
40045;BMP280;25735;48.122;11.422;2023-01-09T07:45:05;94054.44;;;6.39
40045;BMP280;25735;48.122;11.422;2023-01-09T07:47:30;94057.28;;;6.30
40045;BMP280;25735;48.122;11.422;2023-01-09T07:49:55;94064.81;;;6.26
40045;BMP280;25735;48.122;11.422;2023-01-09T07:52:21;94054.84;;;6.32
40045;BMP280;25735;48.122;11.422;2023-01-09T07:54:47;94056.59;;;6.35
40045;BMP280;25735;48.122;11.422;2023-01-09T07:57:12;94063.84;;;6.23
40045;BMP280;25735;48.122;11.422;2023-01-09T07:59:37;94062.13;;;6.26
40045;BMP280;25735;48.122;11.422;2023-01-09T08:02:02;94058.66;;;6.20
40045;BMP280;25735;48.122;11.422;2023-01-09T08:04:29;94058.44;;;6.23
40045;BMP280;25735;48.122;11.422;2023-01-09T08:06:55;94070.59;;;6.14
40045;BMP280;25735;48.122;11.422;2023-01-09T08:09:21;94075.91;;;6.28
40045;BMP280;25735;48.122;11.422;2023-01-09T08:11:46;94086.94;;;6.10
40045;BMP280;25735;48.122;11.422;2023-01-09T08:14:11;94090.03;;;6.23
40045;BMP280;25735;48.122;11.422;2023-01-09T08:16:36;94086.69;;;6.28
40045;BMP280;25735;48.122;11.422;2023-01-09T08:19:02;94082.56;;;6.32
40045;BMP280;25735;48.122;11.422;2023-01-09T08:21:27;94094.50;;;6.26
40045;BMP280;25735;48.122;11.422;2023-01-09T08:23:52;94090.03;;;6.23
40045;BMP280;25735;48.122;11.422;2023-01-09T08:26:17;94098.75;;;6.32
40045;BMP280;25735;48.122;11.422;2023-01-09T08:28:43;94102.06;;;6.22
40045;BMP280;25735;48.122;11.422;2023-01-09T08:31:09;94112.09;;;6.21
40045;BMP280;25735;48.122;11.422;2023-01-09T08:33:34;94125.78;;;6.18
40045;BMP280;25735;48.122;11.422;2023-01-09T08:35:59;94116.06;;;6.26
40045;BMP280;25735;48.122;11.422;2023-01-09T08:38:24;94119.66;;;6.37
40045;BMP280;25735;48.122;11.422;2023-01-09T08:40:50;94110.69;;;6.26
40045;BMP280;25735;48.122;11.422;2023-01-09T08:43:15;94137.81;;;6.37
40045;BMP280;25735;48.122;11.422;2023-01-09T08:45:59;94128.09;;;6.45
40045;BMP280;25735;48.122;11.422;2023-01-09T08:48:43;94140.75;;;6.39
40045;BMP280;25735;48.122;11.422;2023-01-09T08:51:09;94141.38;;;6.28
40045;BMP280;25735;48.122;11.422;2023-01-09T08:53:35;94134.31;;;6.17
40045;BMP280;25735;48.122;11.422;2023-01-09T08:56:00;94151.28;;;6.17
40045;BMP280;25735;48.122;11.422;2023-01-09T08:58:25;94141.22;;;6.18
40045;BMP280;25735;48.122;11.422;2023-01-09T09:00:50;94141.44;;;6.14
40045;BMP280;25735;48.122;11.422;2023-01-09T09:03:16;94153.41;;;6.13
40045;BMP280;25735;48.122;11.422;2023-01-09T09:05:41;94156.47;;;6.20
40045;BMP280;25735;48.122;11.422;2023-01-09T09:08:07;94143.84;;;6.12
40045;BMP280;25735;48.122;11.422;2023-01-09T09:10:32;94133.44;;;6.05
40045;BMP280;25735;48.122;11.422;2023-01-09T09:12:58;94149.22;;;6.12
40045;BMP280;25735;48.122;11.422;2023-01-09T09:15:25;94135.84;;;6.18
40045;BMP280;25735;48.122;11.422;2023-01-09T09:17:52;94147.34;;;6.18
40045;BMP280;25735;48.122;11.422;2023-01-09T09:20:20;94134.63;;;6.38
40045;BMP280;25735;48.122;11.422;2023-01-09T09:22:46;94143.88;;;6.32
40045;BMP280;25735;48.122;11.422;2023-01-09T09:25:11;94149.25;;;6.32
40045;BMP280;25735;48.122;11.422;2023-01-09T09:27:37;94153.28;;;6.22
40045;BMP280;25735;48.122;11.422;2023-01-09T09:30:03;94148.84;;;6.19
40045;BMP280;25735;48.122;11.422;2023-01-09T09:32:30;94144.38;;;6.16
40045;BMP280;25735;48.122;11.422;2023-01-09T09:34:55;94142.47;;;6.02
40045;BMP280;25735;48.122;11.422;2023-01-09T09:37:21;94141.63;;;6.11
40045;BMP280;25735;48.122;11.422;2023-01-09T09:39:46;94153.81;;;6.06
40045;BMP280;25735;48.122;11.422;2023-01-09T09:42:46;94155.31;;;6.07
40045;BMP280;25735;48.122;11.422;2023-01-09T09:45:55;94154.63;;;6.12
40045;BMP280;25735;48.122;11.422;2023-01-09T09:48:34;94143.84;;;6.12
40045;BMP280;25735;48.122;11.422;2023-01-09T09:53:53;94147.91;;;6.22
40045;BMP280;25735;48.122;11.422;2023-01-09T09:56:22;94151.28;;;6.17
40045;BMP280;25735;48.122;11.422;2023-01-09T09:58:56;94158.88;;;6.18
40045;BMP280;25735;48.122;11.422;2023-01-09T10:01:30;94153.91;;;6.31
40045;BMP280;25735;48.122;11.422;2023-01-09T10:03:59;94137.94;;;6.28
40045;BMP280;25735;48.122;11.422;2023-01-09T10:06:28;94137.81;;;6.37
40045;BMP280;25735;48.122;11.422;2023-01-09T10:09:01;94142.78;;;6.44
40045;BMP280;25735;48.122;11.422;2023-01-09T10:14:37;94137.31;;;6.58
40045;BMP280;25735;48.122;11.422;2023-01-09T10:17:11;94120.19;;;6.61
40045;BMP280;25735;48.122;11.422;2023-01-09T10:22:44;94130.16;;;6.55
40045;BMP280;25735;48.122;11.422;2023-01-09T10:25:34;94117.34;;;6.70
40045;BMP280;25735;48.122;11.422;2023-01-09T10:28:19;94120.59;;;6.73
40045;BMP280;25735;48.122;11.422;2023-01-09T10:30:49;94116.81;;;6.66
40045;BMP280;25735;48.122;11.422;2023-01-09T10:38:52;94124.72;;;6.69
40045;BMP280;25735;48.122;11.422;2023-01-09T10:41:34;94116.88;;;6.71
40045;BMP280;25735;48.122;11.422;2023-01-09T10:44:21;94118.59;;;6.69
40045;BMP280;25735;48.122;11.422;2023-01-09T10:46:52;94127.75;;;6.76
40045;BMP280;25735;48.122;11.422;2023-01-09T10:49:21;94120.13;;;7.00
40045;BMP280;25735;48.122;11.422;2023-01-09T10:52:01;94123.94;;;7.13
40045;BMP280;25735;48.122;11.422;2023-01-09T10:54:29;94123.53;;;6.95
40045;BMP280;25735;48.122;11.422;2023-01-09T10:57:01;94122.63;;;6.78
40045;BMP280;25735;48.122;11.422;2023-01-09T10:59:30;94124.16;;;6.85
40045;BMP280;25735;48.122;11.422;2023-01-09T11:01:55;94118.47;;;6.83
40045;BMP280;25735;48.122;11.422;2023-01-09T11:04:25;94123.84;;;7.02
40045;BMP280;25735;48.122;11.422;2023-01-09T11:06:59;94128.97;;;7.01
40045;BMP280;25735;48.122;11.422;2023-01-09T11:09:26;94125.44;;;6.89
40045;BMP280;25735;48.122;11.422;2023-01-09T11:11:51;94113.47;;;6.96
40045;BMP280;25735;48.122;11.422;2023-01-09T11:14:23;94124.69;;;6.89
40045;BMP280;25735;48.122;11.422;2023-01-09T11:17:00;94114.38;;;7.12
40045;BMP280;25735;48.122;11.422;2023-01-09T11:19:27;94119.34;;;6.94
40045;BMP280;25735;48.122;11.422;2023-01-09T11:22:16;94116.56;;;7.08
40045;BMP280;25735;48.122;11.422;2023-01-09T11:24:41;94116.78;;;7.10
40045;BMP280;25735;48.122;11.422;2023-01-09T11:29:39;94123.41;;;7.09
40045;BMP280;25735;48.122;11.422;2023-01-09T11:32:04;94121.53;;;7.15
40045;BMP280;25735;48.122;11.422;2023-01-09T11:34:31;94127.44;;;7.19
40045;BMP280;25735;48.122;11.422;2023-01-09T11:37:07;94113.88;;;7.14
40045;BMP280;25735;48.122;11.422;2023-01-09T11:39:36;94116.78;;;7.10
40045;BMP280;25735;48.122;11.422;2023-01-09T11:42:08;94117.00;;;7.32
40045;BMP280;25735;48.122;11.422;2023-01-09T11:44:43;94121.19;;;7.33
40045;BMP280;25735;48.122;11.422;2023-01-09T11:47:36;94102.41;;;7.49
40045;BMP280;25735;48.122;11.422;2023-01-09T11:50:22;94122.94;;;7.36
40045;BMP280;25735;48.122;11.422;2023-01-09T11:53:15;94103.41;;;7.52
40045;BMP280;25735;48.122;11.422;2023-01-09T11:55:41;94117.88;;;7.43
40045;BMP280;25735;48.122;11.422;2023-01-09T11:58:15;94112.19;;;7.41
40045;BMP280;25735;48.122;11.422;2023-01-09T12:06:25;94114.66;;;7.45
40045;BMP280;25735;48.122;11.422;2023-01-09T12:09:00;94110.22;;;7.42
40045;BMP280;25735;48.122;11.422;2023-01-09T12:14:02;94107.22;;;7.65
40045;BMP280;25735;48.122;11.422;2023-01-09T12:27:44;94120.88;;;7.51
40045;BMP280;25735;48.122;11.422;2023-01-09T12:33:14;94111.53;;;7.52
40045;BMP280;25735;48.122;11.422;2023-01-09T12:35:47;94125.25;;;7.79
40045;BMP280;25735;48.122;11.422;2023-01-09T12:38:38;94133.34;;;7.73
40045;BMP280;25735;48.122;11.422;2023-01-09T12:41:25;94117.25;;;7.95
40045;BMP280;25735;48.122;11.422;2023-01-09T12:49:31;94122.63;;;8.20
40045;BMP280;25735;48.122;11.422;2023-01-09T12:52:07;94131.09;;;8.02
40045;BMP280;25735;48.122;11.422;2023-01-09T12:54:48;94125.88;;;8.29
40045;BMP280;25735;48.122;11.422;2023-01-09T12:57:36;94124.94;;;8.02
40045;BMP280;25735;48.122;11.422;2023-01-09T13:00:14;94122.59;;;7.84
40045;BMP280;25735;48.122;11.422;2023-01-09T13:03:08;94129.97;;;7.84
40045;BMP280;25735;48.122;11.422;2023-01-09T13:05:42;94118.63;;;7.80
40045;BMP280;25735;48.122;11.422;2023-01-09T13:10:48;94132.78;;;7.64
40045;BMP280;25735;48.122;11.422;2023-01-09T13:13:19;94140.97;;;7.50
40045;BMP280;25735;48.122;11.422;2023-01-09T13:15:49;94135.53;;;7.69
40045;BMP280;25735;48.122;11.422;2023-01-09T13:18:26;94132.16;;;7.80
40045;BMP280;25735;48.122;11.422;2023-01-09T13:20:54;94134.03;;;7.68
40045;BMP280;25735;48.122;11.422;2023-01-09T13:23:28;94123.06;;;7.52
40045;BMP280;25735;48.122;11.422;2023-01-09T13:25:57;94122.56;;;7.48
40045;BMP280;25735;48.122;11.422;2023-01-09T13:28:34;94126.16;;;7.40
40045;BMP280;25735;48.122;11.422;2023-01-09T13:31:32;94121.91;;;7.33
40045;BMP280;25735;48.122;11.422;2023-01-09T13:34:04;94126.16;;;7.40
40045;BMP280;25735;48.122;11.422;2023-01-09T13:36:38;94118.25;;;7.36
40045;BMP280;25735;48.122;11.422;2023-01-09T13:39:05;94112.19;;;7.41
40045;BMP280;25735;48.122;11.422;2023-01-09T13:41:31;94110.31;;;7.53
40045;BMP280;25735;48.122;11.422;2023-01-09T13:46:47;94116.63;;;7.44
40045;BMP280;25735;48.122;11.422;2023-01-09T13:57:28;94105.56;;;7.42
40045;BMP280;25735;48.122;11.422;2023-01-09T13:59:58;94101.38;;;7.41
40045;BMP280;25735;48.122;11.422;2023-01-09T14:05:12;94098.19;;;7.43
40045;BMP280;25735;48.122;11.422;2023-01-09T14:07:48;94103.06;;;7.39
40045;BMP280;25735;48.122;11.422;2023-01-09T14:10:22;94098.38;;;7.34
40045;BMP280;25735;48.122;11.422;2023-01-09T14:12:49;94120.66;;;7.29
40045;BMP280;25735;48.122;11.422;2023-01-09T14:15:35;94120.75;;;7.40
40045;BMP280;25735;48.122;11.422;2023-01-09T14:18:16;94119.28;;;7.39
40045;BMP280;25735;48.122;11.422;2023-01-09T14:20:45;94115.34;;;7.40
40045;BMP280;25735;48.122;11.422;2023-01-09T14:23:23;94122.69;;;7.34
40045;BMP280;25735;48.122;11.422;2023-01-09T14:25:50;94110.72;;;7.40
40045;BMP280;25735;48.122;11.422;2023-01-09T14:28:25;94122.69;;;7.34
40045;BMP280;25735;48.122;11.422;2023-01-09T14:38:51;94138.56;;;7.27
40045;BMP280;25735;48.122;11.422;2023-01-09T14:44:28;94141.22;;;7.21
40045;BMP280;25735;48.122;11.422;2023-01-09T14:46:58;94143.38;;;7.17
40045;BMP280;25735;48.122;11.422;2023-01-09T14:49:40;94151.34;;;7.26
40045;BMP280;25735;48.122;11.422;2023-01-09T14:52:14;94156.16;;;7.17
40045;BMP280;25735;48.122;11.422;2023-01-09T14:54:42;94148.09;;;7.22
40045;BMP280;25735;48.122;11.422;2023-01-09T14:57:28;94149.00;;;7.14
40045;BMP280;25735;48.122;11.422;2023-01-09T15:02:36;94155.25;;;7.25
40045;BMP280;25735;48.122;11.422;2023-01-09T15:05:04;94157.38;;;7.16
40045;BMP280;25735;48.122;11.422;2023-01-09T15:07:36;94160.56;;;7.14
40045;BMP280;25735;48.122;11.422;2023-01-09T15:10:15;94160.28;;;7.12
40045;BMP280;25735;48.122;11.422;2023-01-09T15:12:44;94159.34;;;7.15
40045;BMP280;25735;48.122;11.422;2023-01-09T15:15:12;94153.22;;;7.20
40045;BMP280;25735;48.122;11.422;2023-01-09T15:17:39;94149.41;;;7.07
40045;BMP280;25735;48.122;11.422;2023-01-09T15:20:16;94166.50;;;7.18
40045;BMP280;25735;48.122;11.422;2023-01-09T15:22:48;94161.34;;;7.20
40045;BMP280;25735;48.122;11.422;2023-01-09T15:25:22;94171.63;;;7.16
40045;BMP280;25735;48.122;11.422;2023-01-09T15:27:52;94163.78;;;7.18
40045;BMP280;25735;48.122;11.422;2023-01-09T15:32:54;94162.59;;;7.00
40045;BMP280;25735;48.122;11.422;2023-01-09T15:35:20;94165.91;;;7.09
40045;BMP280;25735;48.122;11.422;2023-01-09T15:37:46;94191.88;;;7.06
40045;BMP280;25735;48.122;11.422;2023-01-09T15:40:18;94179.75;;;6.97
40045;BMP280;25735;48.122;11.422;2023-01-09T15:42:46;94180.28;;;7.01
40045;BMP280;25735;48.122;11.422;2023-01-09T15:45:41;94182.72;;;6.99
40045;BMP280;25735;48.122;11.422;2023-01-09T15:50:54;94190.00;;;6.93
40045;BMP280;25735;48.122;11.422;2023-01-09T15:53:21;94190.75;;;6.93
40045;BMP280;25735;48.122;11.422;2023-01-09T15:56:16;94200.75;;;6.87
40045;BMP280;25735;48.122;11.422;2023-01-09T15:58:45;94196.25;;;6.79
40045;BMP280;25735;48.122;11.422;2023-01-09T16:01:29;94204.38;;;6.84
40045;BMP280;25735;48.122;11.422;2023-01-09T16:04:03;94214.19;;;6.62